METAR Data

Data at: 0052 UTC 23 Mar 2019

METAR for:KSDL (Scottsdale Muni, AZ, US)
Text:KSDL 222353Z 00000KT 10SM CLR 21/M01 A3003 RMK AO2 SLP157 T02111011 10217 20167 56012
Temperature: 21.1°C ( 70°F)
Dewpoint: -1.1°C ( 30°F) [RH = 23%]
Pressure (altimeter):30.03 inches Hg (1017.0 mb) [Sea level pressure: 1015.7 mb]
Winds:calm
Visibility:10 or more sm (16+ km)
Ceiling:at least 12,000 feet AGL
Clouds:sky clear below 12,000 feet AGL